createdAt,value
2018-06-25T00:00:09.425Z,0.00
2018-06-25T00:01:09.468Z,0.00
2018-06-25T00:03:02.355Z,0.00
2018-06-25T00:04:02.355Z,0.00
2018-06-25T00:05:55.264Z,0.00
2018-06-25T00:06:55.284Z,0.00
2018-06-25T00:08:48.212Z,0.00
2018-06-25T00:09:48.213Z,0.00
2018-06-25T00:11:41.122Z,0.00
2018-06-25T00:12:41.141Z,0.00
2018-06-25T00:14:34.077Z,0.00
2018-06-25T00:15:34.070Z,0.00
2018-06-25T00:17:26.980Z,0.00
2018-06-25T00:18:27.000Z,0.00
2018-06-25T00:20:19.930Z,0.00
2018-06-25T00:21:19.933Z,0.00
2018-06-25T00:23:12.838Z,0.00
2018-06-25T00:24:12.858Z,0.00
2018-06-25T00:26:05.789Z,0.00
2018-06-25T00:27:05.790Z,0.00
2018-06-25T00:28:58.735Z,0.00
2018-06-25T00:29:58.733Z,0.00
2018-06-25T00:31:51.641Z,0.00
2018-06-25T00:32:51.663Z,0.00
2018-06-25T00:34:44.590Z,0.00
2018-06-25T00:35:44.590Z,0.00
2018-06-25T00:37:37.508Z,0.00
2018-06-25T00:38:37.537Z,0.00
2018-06-25T00:40:30.462Z,0.00
2018-06-25T00:41:30.455Z,0.00
2018-06-25T00:43:23.367Z,0.00
2018-06-25T00:44:23.387Z,0.00
2018-06-25T00:46:16.315Z,0.00
2018-06-25T00:47:16.316Z,0.00
2018-06-25T00:49:09.245Z,0.00
2018-06-25T00:50:09.248Z,0.00
2018-06-25T00:52:02.160Z,0.00
2018-06-25T00:53:02.176Z,0.00
2018-06-25T00:54:55.106Z,0.00
2018-06-25T00:55:55.106Z,0.00
2018-06-25T00:57:48.015Z,0.00
2018-06-25T00:58:48.034Z,0.00
2018-06-25T01:00:40.964Z,0.00
2018-06-25T01:01:40.962Z,0.00
2018-06-25T01:03:33.877Z,0.00
2018-06-25T01:04:33.897Z,0.00
2018-06-25T01:06:26.830Z,0.00
2018-06-25T01:07:26.827Z,0.00
2018-06-25T01:09:19.736Z,0.00
2018-06-25T01:10:19.756Z,0.00
2018-06-25T01:12:12.685Z,0.00
2018-06-25T01:13:12.685Z,0.00
2018-06-25T01:15:05.615Z,0.00
2018-06-25T01:16:05.616Z,0.00
2018-06-25T01:17:58.521Z,0.00
2018-06-25T01:18:58.542Z,0.00
2018-06-25T01:20:51.469Z,0.00
2018-06-25T01:21:51.471Z,0.00
2018-06-25T01:23:44.383Z,0.00
2018-06-25T01:24:44.400Z,0.00
2018-06-25T01:26:37.328Z,0.00
2018-06-25T01:27:37.330Z,0.00
2018-06-25T01:29:30.235Z,0.00
2018-06-25T01:30:30.256Z,0.00
2018-06-25T01:32:23.185Z,0.00
2018-06-25T01:33:23.187Z,0.00
2018-06-25T01:35:16.120Z,0.00
2018-06-25T01:36:16.113Z,0.00
2018-06-25T01:38:09.226Z,0.00
2018-06-25T01:39:09.244Z,0.00
2018-06-25T01:41:02.204Z,0.00
2018-06-25T01:42:02.177Z,0.00
2018-06-25T01:43:55.084Z,0.00
2018-06-25T01:44:55.105Z,0.00
2018-06-25T01:46:48.035Z,0.00
2018-06-25T01:47:48.035Z,0.00
2018-06-25T01:49:40.943Z,0.00
2018-06-25T01:50:40.963Z,0.00
2018-06-25T01:52:33.893Z,0.00
2018-06-25T01:53:33.892Z,0.00
2018-06-25T01:55:26.801Z,0.00
2018-06-25T01:56:26.820Z,0.00
2018-06-25T01:58:19.748Z,0.00
2018-06-25T01:59:19.749Z,0.00
2018-06-25T02:01:12.811Z,0.00
2018-06-25T02:02:12.809Z,0.00
2018-06-25T02:04:05.720Z,0.00
2018-06-25T02:05:05.740Z,0.00
2018-06-25T02:06:58.668Z,0.00
2018-06-25T02:07:58.670Z,0.00
2018-06-25T02:09:51.587Z,0.00
2018-06-25T02:10:51.603Z,0.00
2018-06-25T02:12:44.529Z,0.00
2018-06-25T02:13:44.529Z,0.00
2018-06-25T02:15:37.447Z,0.00
2018-06-25T02:16:37.457Z,0.00
2018-06-25T02:18:30.387Z,0.00
2018-06-25T02:19:30.387Z,0.00
2018-06-25T02:21:23.295Z,0.00
2018-06-25T02:22:23.315Z,0.00
2018-06-25T02:24:16.242Z,0.00
2018-06-25T02:25:16.243Z,0.00
2018-06-25T02:27:09.169Z,0.00
2018-06-25T02:28:09.173Z,4.00
2018-06-25T02:30:02.093Z,0.00
2018-06-25T02:31:02.102Z,0.00
2018-06-25T02:32:55.085Z,4.00
2018-06-25T02:33:55.030Z,4.00
2018-06-25T02:35:47.938Z,4.00
2018-06-25T02:36:47.959Z,4.00
2018-06-25T02:38:40.980Z,4.00
2018-06-25T02:39:40.888Z,4.00
2018-06-25T02:41:33.801Z,8.00
2018-06-25T02:42:33.822Z,4.00
2018-06-25T02:44:26.755Z,8.00
2018-06-25T02:45:26.757Z,8.00
2018-06-25T02:47:19.698Z,12.00
2018-06-25T02:48:19.685Z,16.00
2018-06-25T02:50:12.597Z,16.00
2018-06-25T02:51:12.614Z,16.00
2018-06-25T02:53:05.549Z,24.00
2018-06-25T02:54:05.545Z,28.00
2018-06-25T02:55:58.455Z,32.00
2018-06-25T02:56:58.476Z,36.00
2018-06-25T02:58:51.408Z,40.00
2018-06-25T02:59:51.407Z,44.00
2018-06-25T03:01:44.316Z,56.00
2018-06-25T03:02:44.337Z,56.00
2018-06-25T03:04:37.265Z,56.00
2018-06-25T03:05:37.268Z,68.00
2018-06-25T03:07:30.176Z,64.00
2018-06-25T03:08:30.196Z,68.00
2018-06-25T03:10:23.125Z,96.00
2018-06-25T03:11:23.127Z,92.00
2018-06-25T03:13:16.070Z,100.00
2018-06-25T03:14:16.057Z,108.00
2018-06-25T03:16:08.966Z,132.00
2018-06-25T03:17:08.985Z,136.00
2018-06-25T03:19:01.915Z,172.00
2018-06-25T03:20:01.915Z,196.00
2018-06-25T03:21:54.829Z,196.00
2018-06-25T03:22:54.855Z,220.00
2018-06-25T03:24:47.774Z,228.00
2018-06-25T03:25:47.777Z,216.00
2018-06-25T03:27:40.686Z,200.00
2018-06-25T03:28:40.706Z,196.00
2018-06-25T03:30:33.634Z,212.00
2018-06-25T03:31:33.635Z,224.00
2018-06-25T03:33:26.545Z,212.00
2018-06-25T03:34:26.565Z,216.00
2018-06-25T03:36:19.492Z,216.00
2018-06-25T03:37:19.493Z,220.00
2018-06-25T03:39:12.438Z,228.00
2018-06-25T03:40:12.421Z,232.00
2018-06-25T03:42:05.334Z,244.00
2018-06-25T03:43:05.352Z,264.00
2018-06-25T03:44:58.281Z,304.00
2018-06-25T03:45:58.281Z,352.00
2018-06-25T03:47:51.189Z,424.00
2018-06-25T03:48:51.208Z,456.00
2018-06-25T03:50:44.140Z,416.00
2018-06-25T03:51:44.141Z,420.00
2018-06-25T03:53:37.050Z,512.00
2018-06-25T03:54:37.068Z,492.00
2018-06-25T03:56:29.997Z,560.00
2018-06-25T03:57:30.000Z,572.00
2018-06-25T03:59:23.054Z,572.00
2018-06-25T04:00:23.143Z,528.00
2018-06-25T04:02:16.006Z,608.00
2018-06-25T04:03:16.006Z,588.00
2018-06-25T04:05:08.934Z,588.00
2018-06-25T04:06:08.936Z,572.00
2018-06-25T04:08:01.844Z,620.00
2018-06-25T04:09:01.864Z,616.00
2018-06-25T04:10:54.795Z,644.00
2018-06-25T04:11:54.795Z,716.00
2018-06-25T04:13:47.711Z,768.00
2018-06-25T04:14:47.726Z,784.00
2018-06-25T04:16:40.670Z,960.00
2018-06-25T04:17:40.662Z,1036.00
2018-06-25T04:19:33.569Z,1128.00
2018-06-25T04:20:33.590Z,1316.00
2018-06-25T04:22:26.521Z,1556.00
2018-06-25T04:23:26.521Z,1724.00
2018-06-25T04:25:19.481Z,2140.00
2018-06-25T04:26:19.451Z,2144.00
2018-06-25T04:28:12.365Z,2640.00
2018-06-25T04:29:12.386Z,2780.00
2018-06-25T04:31:05.316Z,2832.00
2018-06-25T04:32:05.339Z,3088.00
2018-06-25T04:33:58.227Z,2928.00
2018-06-25T04:34:58.249Z,3008.00
2018-06-25T04:36:51.179Z,3184.00
2018-06-25T04:37:51.178Z,3316.00
2018-06-25T04:39:44.089Z,3172.00
2018-06-25T04:40:44.110Z,3480.00
2018-06-25T04:42:37.042Z,3644.00
2018-06-25T04:43:37.042Z,3432.00
2018-06-25T04:45:29.953Z,3516.00
2018-06-25T04:46:29.977Z,3592.00
2018-06-25T04:48:22.903Z,3452.00
2018-06-25T04:49:22.916Z,2884.00
2018-06-25T04:51:15.840Z,2520.00
2018-06-25T04:52:15.836Z,2444.00
2018-06-25T04:54:08.745Z,2260.00
2018-06-25T04:55:08.768Z,2572.00
2018-06-25T04:57:01.696Z,2592.00
2018-06-25T04:58:01.698Z,2620.00
2018-06-25T04:59:54.607Z,2820.00
2018-06-25T05:00:54.685Z,2532.00
2018-06-25T05:02:47.558Z,3632.00
2018-06-25T05:03:47.560Z,3752.00
2018-06-25T05:05:40.472Z,4084.00
2018-06-25T05:06:40.493Z,4396.00
2018-06-25T05:08:33.421Z,3592.00
2018-06-25T05:09:33.424Z,3476.00
2018-06-25T05:11:26.363Z,2792.00
2018-06-25T05:12:26.359Z,2312.00
2018-06-25T05:14:19.266Z,2504.00
2018-06-25T05:15:19.287Z,2340.00
2018-06-25T05:17:12.217Z,2480.00
2018-06-25T05:18:12.218Z,2456.00
2018-06-25T05:20:05.128Z,2360.00
2018-06-25T05:21:05.150Z,2476.00
2018-06-25T05:22:58.076Z,2828.00
2018-06-25T05:23:58.079Z,3020.00
2018-06-25T05:25:50.988Z,2884.00
2018-06-25T05:26:51.009Z,2980.00
2018-06-25T05:28:43.940Z,3264.00
2018-06-25T05:29:43.945Z,3360.00
2018-06-25T05:31:36.854Z,3088.00
2018-06-25T05:32:36.877Z,3116.00
2018-06-25T05:34:29.807Z,3096.00
2018-06-25T05:35:29.810Z,2828.00
2018-06-25T05:37:22.739Z,2756.00
2018-06-25T05:38:22.741Z,2840.00
2018-06-25T05:40:15.652Z,3012.00
2018-06-25T05:41:15.672Z,3456.00
2018-06-25T05:43:08.601Z,2576.00
2018-06-25T05:44:08.601Z,2316.00
2018-06-25T05:46:01.512Z,1956.00
2018-06-25T05:47:01.533Z,1812.00
2018-06-25T05:48:54.540Z,1728.00
2018-06-25T05:49:54.467Z,1640.00
2018-06-25T05:51:47.379Z,1612.00
2018-06-25T05:52:47.398Z,1900.00
2018-06-25T05:54:40.331Z,2216.00
2018-06-25T05:55:40.331Z,2296.00
2018-06-25T05:57:33.248Z,2088.00
2018-06-25T05:58:33.269Z,2152.00
2018-06-25T06:00:26.200Z,2540.00
2018-06-25T06:01:26.200Z,2460.00
2018-06-25T06:03:19.134Z,2368.00
2018-06-25T06:04:19.134Z,2704.00
2018-06-25T06:06:12.047Z,3580.00
2018-06-25T06:07:12.068Z,3748.00
2018-06-25T06:09:05.003Z,3812.00
2018-06-25T06:10:04.999Z,4284.00
2018-06-25T06:11:57.913Z,4148.00
2018-06-25T06:12:57.932Z,4700.00
2018-06-25T06:14:50.865Z,4564.00
2018-06-25T06:15:50.867Z,4084.00
2018-06-25T06:17:43.783Z,3588.00
2018-06-25T06:18:43.803Z,3976.00
2018-06-25T06:20:36.736Z,4904.00
2018-06-25T06:21:36.740Z,4852.00
2018-06-25T06:23:29.681Z,4772.00
2018-06-25T06:24:29.747Z,4628.00
2018-06-25T06:26:22.606Z,5784.00
2018-06-25T06:27:22.602Z,5196.00
2018-06-25T06:29:15.535Z,3340.00
2018-06-25T06:30:15.535Z,2828.00
2018-06-25T06:32:08.500Z,2208.00
2018-06-25T06:33:08.468Z,2288.00
2018-06-25T06:35:01.405Z,2360.00
2018-06-25T06:36:01.404Z,2428.00
2018-06-25T06:37:54.315Z,2912.00
2018-06-25T06:38:54.337Z,3152.00
2018-06-25T06:40:47.272Z,2636.00
2018-06-25T06:41:47.269Z,2280.00
2018-06-25T06:43:40.215Z,2292.00
2018-06-25T06:44:40.202Z,2412.00
2018-06-25T06:46:33.111Z,3024.00
2018-06-25T06:47:33.134Z,3408.00
2018-06-25T06:49:26.065Z,4832.00
2018-06-25T06:50:26.066Z,5576.00
2018-06-25T06:52:18.979Z,5732.00
2018-06-25T06:53:19.001Z,4708.00
2018-06-25T06:55:11.935Z,3892.00
2018-06-25T06:56:11.937Z,4320.00
2018-06-25T06:58:04.849Z,3672.00
2018-06-25T06:59:04.869Z,3052.00
2018-06-25T07:00:57.800Z,2476.00
2018-06-25T07:01:57.802Z,2560.00
2018-06-25T07:03:50.716Z,2540.00
2018-06-25T07:04:50.802Z,2620.00
2018-06-25T07:06:43.667Z,3312.00
2018-06-25T07:07:43.669Z,3216.00
2018-06-25T07:09:36.608Z,3152.00
2018-06-25T07:10:36.602Z,3524.00
2018-06-25T07:12:29.514Z,4604.00
2018-06-25T07:13:29.538Z,5400.00
2018-06-25T07:15:22.469Z,5472.00
2018-06-25T07:16:22.475Z,5628.00
2018-06-25T07:18:15.382Z,7728.00
2018-06-25T07:19:15.403Z,7476.00
2018-06-25T07:21:08.336Z,8276.00
2018-06-25T07:22:08.338Z,9492.00
2018-06-25T07:24:01.252Z,11428.00
2018-06-25T07:25:01.274Z,13992.00
2018-06-25T07:26:54.211Z,18368.00
2018-06-25T07:27:54.213Z,20608.00
2018-06-25T07:29:47.147Z,20736.00
2018-06-25T07:30:47.162Z,20960.00
2018-06-25T07:32:40.082Z,19168.00
2018-06-25T07:33:40.085Z,17888.00
2018-06-25T07:35:33.022Z,15820.00
2018-06-25T07:36:33.025Z,13844.00
2018-06-25T07:38:25.941Z,15348.00
2018-06-25T07:39:25.966Z,15064.00
2018-06-25T07:41:18.904Z,15860.00
2018-06-25T07:42:18.910Z,12436.00
2018-06-25T07:44:11.827Z,13300.00
2018-06-25T07:45:11.860Z,15600.00
2018-06-25T07:47:04.857Z,12956.00
2018-06-25T07:48:04.792Z,10892.00
2018-06-25T07:49:57.712Z,11636.00
2018-06-25T07:50:57.741Z,11224.00
2018-06-25T07:52:50.675Z,16400.00
2018-06-25T07:53:50.679Z,18016.00
2018-06-25T07:55:43.625Z,21152.00
2018-06-25T07:56:43.620Z,21472.00
2018-06-25T07:58:36.538Z,20416.00
2018-06-25T07:59:36.568Z,17600.00
2018-06-25T08:01:29.510Z,14108.00
2018-06-25T08:02:29.516Z,17984.00
2018-06-25T08:04:22.433Z,15412.00
2018-06-25T08:05:22.462Z,19072.00
2018-06-25T08:07:15.399Z,21632.00
2018-06-25T08:08:15.406Z,18240.00
2018-06-25T08:10:08.343Z,24288.00
2018-06-25T08:11:08.351Z,24672.00
2018-06-25T08:13:01.291Z,25824.00
2018-06-25T08:14:01.299Z,19136.00
2018-06-25T08:15:54.215Z,9208.00
2018-06-25T08:16:54.244Z,8752.00
2018-06-25T08:18:47.182Z,8208.00
2018-06-25T08:19:47.192Z,8244.00
2018-06-25T08:21:40.141Z,8364.00
2018-06-25T08:22:40.142Z,10512.00
2018-06-25T08:24:33.058Z,13948.00
2018-06-25T08:25:33.085Z,16104.00
2018-06-25T08:27:26.023Z,17792.00
2018-06-25T08:28:26.025Z,17216.00
2018-06-25T08:30:18.943Z,15308.00
2018-06-25T08:31:18.974Z,14268.00
2018-06-25T08:33:11.909Z,13988.00
2018-06-25T08:34:11.972Z,13760.00
2018-06-25T08:36:04.831Z,9428.00
2018-06-25T08:37:04.940Z,7912.00
2018-06-25T08:38:57.794Z,7660.00
2018-06-25T08:39:57.811Z,8900.00
2018-06-25T08:41:50.723Z,15596.00
2018-06-25T08:42:50.750Z,17696.00
2018-06-25T08:44:43.687Z,17984.00
2018-06-25T08:45:43.717Z,19136.00
2018-06-25T08:47:36.633Z,21504.00
2018-06-25T08:48:36.645Z,20416.00
2018-06-25T08:50:29.561Z,21440.00
2018-06-25T08:51:29.588Z,22240.00
2018-06-25T08:53:22.525Z,23104.00
2018-06-25T08:54:22.537Z,19872.00
2018-06-25T08:56:15.454Z,16448.00
2018-06-25T08:57:15.482Z,13312.00
2018-06-25T08:59:08.509Z,9232.00
2018-06-25T09:00:08.436Z,8028.00
2018-06-25T09:02:01.362Z,10408.00
2018-06-25T09:03:01.400Z,11652.00
2018-06-25T09:04:54.332Z,17120.00
2018-06-25T09:05:54.339Z,16540.00
2018-06-25T09:07:47.279Z,15088.00
2018-06-25T09:08:47.290Z,16064.00
2018-06-25T09:10:40.207Z,18368.00
2018-06-25T09:11:40.236Z,20480.00
2018-06-25T09:13:33.173Z,21408.00
2018-06-25T09:14:33.184Z,18784.00
2018-06-25T09:16:26.100Z,15244.00
2018-06-25T09:17:26.130Z,14052.00
2018-06-25T09:19:19.066Z,15964.00
2018-06-25T09:20:19.076Z,17600.00
2018-06-25T09:22:12.067Z,18176.00
2018-06-25T09:23:12.021Z,17760.00
2018-06-25T09:25:04.960Z,20160.00
2018-06-25T09:26:04.968Z,19968.00
2018-06-25T09:27:57.917Z,19040.00
2018-06-25T09:28:57.916Z,19168.00
2018-06-25T09:30:50.856Z,13076.00
2018-06-25T09:31:50.864Z,9596.00
2018-06-25T09:33:43.807Z,9584.00
2018-06-25T09:34:43.817Z,10376.00
2018-06-25T09:36:36.739Z,12660.00
2018-06-25T09:37:36.765Z,15504.00
2018-06-25T09:39:29.711Z,21312.00
2018-06-25T09:40:29.712Z,22816.00
2018-06-25T09:42:22.635Z,23552.00
2018-06-25T09:43:22.662Z,22592.00
2018-06-25T09:45:15.604Z,21024.00
2018-06-25T09:46:15.658Z,19904.00
2018-06-25T09:48:08.532Z,14704.00
2018-06-25T09:49:08.561Z,12156.00
2018-06-25T09:51:01.502Z,10280.00
2018-06-25T09:52:01.510Z,10224.00
2018-06-25T09:53:54.433Z,9564.00
2018-06-25T09:54:54.514Z,8648.00
2018-06-25T09:56:47.411Z,8864.00
2018-06-25T09:57:47.411Z,9448.00
2018-06-25T09:59:40.361Z,12016.00
2018-06-25T10:00:40.362Z,14196.00
2018-06-25T10:02:33.283Z,17952.00
2018-06-25T10:03:33.331Z,18656.00
2018-06-25T10:05:26.254Z,19040.00
2018-06-25T10:06:26.260Z,18752.00
2018-06-25T10:08:19.184Z,16736.00
2018-06-25T10:09:19.209Z,13948.00
2018-06-25T10:11:12.147Z,8276.00
2018-06-25T10:12:12.159Z,6412.00
2018-06-25T10:14:05.074Z,5556.00
2018-06-25T10:15:05.106Z,5900.00
2018-06-25T10:16:58.041Z,6628.00
2018-06-25T10:17:58.051Z,7452.00
2018-06-25T10:19:50.986Z,9524.00
2018-06-25T10:20:50.992Z,11200.00
2018-06-25T10:22:43.909Z,15536.00
2018-06-25T10:23:43.940Z,17952.00
2018-06-25T10:25:36.874Z,20960.00
2018-06-25T10:26:36.880Z,21568.00
2018-06-25T10:28:29.836Z,18240.00
2018-06-25T10:29:29.834Z,14212.00
2018-06-25T10:31:22.776Z,7912.00
2018-06-25T10:32:22.782Z,6584.00
2018-06-25T10:34:15.698Z,7228.00
2018-06-25T10:35:15.729Z,9460.00
2018-06-25T10:37:08.665Z,16224.00
2018-06-25T10:38:08.674Z,20384.00
2018-06-25T10:40:01.595Z,23040.00
2018-06-25T10:41:01.620Z,22272.00
2018-06-25T10:42:54.556Z,18496.00
2018-06-25T10:43:54.568Z,16044.00
2018-06-25T10:45:47.504Z,13784.00
2018-06-25T10:46:47.514Z,13944.00
2018-06-25T10:48:40.433Z,16388.00
2018-06-25T10:49:40.468Z,18336.00
2018-06-25T10:51:33.400Z,19936.00
2018-06-25T10:52:33.410Z,19520.00
2018-06-25T10:54:26.329Z,18720.00
2018-06-25T10:55:26.358Z,18080.00
2018-06-25T10:57:19.292Z,16068.00
2018-06-25T10:58:19.304Z,15156.00
2018-06-25T11:00:12.516Z,13904.00
2018-06-25T11:01:12.328Z,12960.00
2018-06-25T11:03:05.189Z,11432.00
2018-06-25T11:04:05.199Z,11296.00
2018-06-25T11:05:58.153Z,11696.00
2018-06-25T11:06:58.148Z,12044.00
2018-06-25T11:08:51.064Z,11260.00
2018-06-25T11:09:51.096Z,10996.00
2018-06-25T11:11:44.032Z,11160.00
2018-06-25T11:12:44.089Z,11768.00
2018-06-25T11:14:36.960Z,13024.00
2018-06-25T11:15:36.987Z,13832.00
2018-06-25T11:17:29.929Z,15296.00
2018-06-25T11:18:29.936Z,16528.00
2018-06-25T11:20:22.865Z,16928.00
2018-06-25T11:21:22.892Z,16472.00
2018-06-25T11:23:15.833Z,15064.00
2018-06-25T11:24:15.843Z,15552.00
2018-06-25T11:26:08.763Z,16192.00
2018-06-25T11:27:08.838Z,17248.00
2018-06-25T11:29:01.735Z,20224.00
2018-06-25T11:30:01.743Z,21504.00
2018-06-25T11:31:54.660Z,22208.00
2018-06-25T11:32:54.688Z,21600.00
2018-06-25T11:34:47.627Z,20928.00
2018-06-25T11:35:47.638Z,20320.00
2018-06-25T11:37:40.578Z,19264.00
2018-06-25T11:38:40.585Z,18496.00
2018-06-25T11:40:33.508Z,16184.00
2018-06-25T11:41:33.534Z,15616.00
2018-06-25T11:43:26.474Z,12424.00
2018-06-25T11:44:26.485Z,11240.00
2018-06-25T11:46:19.405Z,9260.00
2018-06-25T11:47:19.432Z,8984.00
2018-06-25T11:49:12.374Z,10472.00
2018-06-25T11:50:12.382Z,11744.00
2018-06-25T11:52:05.304Z,12384.00
2018-06-25T11:53:05.331Z,11368.00
2018-06-25T11:54:58.272Z,9744.00
2018-06-25T11:55:58.282Z,10392.00
2018-06-25T11:57:51.223Z,14112.00
2018-06-25T11:58:51.229Z,16368.00
2018-06-25T12:00:44.152Z,19008.00
2018-06-25T12:01:44.230Z,19328.00
2018-06-25T12:03:37.116Z,19360.00
2018-06-25T12:04:37.127Z,19360.00
2018-06-25T12:06:30.043Z,19136.00
2018-06-25T12:07:30.072Z,18880.00
2018-06-25T12:09:23.013Z,18624.00
2018-06-25T12:10:23.022Z,18272.00
2018-06-25T12:12:15.942Z,17920.00
2018-06-25T12:13:15.970Z,18112.00
2018-06-25T12:15:08.913Z,17760.00
2018-06-25T12:16:08.920Z,16100.00
2018-06-25T12:18:01.844Z,15092.00
2018-06-25T12:19:01.887Z,14848.00
2018-06-25T12:20:54.823Z,15304.00
2018-06-25T12:21:54.822Z,15168.00
2018-06-25T12:23:47.772Z,15864.00
2018-06-25T12:24:47.776Z,16480.00
2018-06-25T12:26:40.704Z,17248.00
2018-06-25T12:27:40.739Z,17440.00
2018-06-25T12:29:33.672Z,17696.00
2018-06-25T12:30:33.683Z,17600.00
2018-06-25T12:32:26.604Z,16896.00
2018-06-25T12:33:26.633Z,16832.00
2018-06-25T12:35:19.576Z,16768.00
2018-06-25T12:36:19.585Z,16160.00
2018-06-25T12:38:12.506Z,15724.00
2018-06-25T12:39:12.536Z,15528.00
2018-06-25T12:41:05.478Z,15040.00
2018-06-25T12:42:05.487Z,14608.00
2018-06-25T12:43:58.415Z,14536.00
2018-06-25T12:44:58.462Z,14948.00
2018-06-25T12:46:52.379Z,15832.00
2018-06-25T12:47:52.397Z,16308.00
2018-06-25T12:49:45.340Z,15788.00
2018-06-25T12:50:45.342Z,16832.00
2018-06-25T12:52:38.268Z,16308.00
2018-06-25T12:53:38.297Z,15528.00
2018-06-25T12:55:31.239Z,14884.00
2018-06-25T12:56:31.250Z,15284.00
2018-06-25T12:58:24.173Z,15920.00
2018-06-25T12:59:24.202Z,15356.00
2018-06-25T13:01:17.149Z,14696.00
2018-06-25T13:02:17.154Z,14884.00
2018-06-25T13:04:10.078Z,14316.00
2018-06-25T13:05:10.105Z,14368.00
2018-06-25T13:07:03.049Z,15180.00
2018-06-25T13:08:03.056Z,14644.00
2018-06-25T13:09:56.009Z,13852.00
2018-06-25T13:10:56.010Z,14012.00
2018-06-25T13:12:48.932Z,14744.00
2018-06-25T13:13:48.962Z,14552.00
2018-06-25T13:15:41.907Z,13804.00
2018-06-25T13:16:41.918Z,13040.00
2018-06-25T13:18:34.843Z,11860.00
2018-06-25T13:19:34.866Z,10940.00
2018-06-25T13:21:27.807Z,11316.00
2018-06-25T13:22:27.823Z,12220.00
2018-06-25T13:24:20.738Z,12216.00
2018-06-25T13:25:20.766Z,12640.00
2018-06-25T13:27:13.766Z,12776.00
2018-06-25T13:28:13.751Z,12352.00
2018-06-25T13:30:06.645Z,12256.00
2018-06-25T13:31:06.710Z,12532.00
2018-06-25T13:32:59.624Z,12724.00
2018-06-25T13:33:59.626Z,12304.00
2018-06-25T13:35:52.553Z,11624.00
2018-06-25T13:36:52.585Z,11184.00
2018-06-25T13:38:45.525Z,11004.00
2018-06-25T13:39:45.537Z,11684.00
2018-06-25T13:41:38.486Z,14112.00
2018-06-25T13:42:38.488Z,15232.00
2018-06-25T13:44:31.417Z,15880.00
2018-06-25T13:45:31.487Z,15572.00
2018-06-25T13:47:24.384Z,14504.00
2018-06-25T13:48:24.490Z,13584.00
2018-06-25T13:50:17.350Z,12908.00
2018-06-25T13:51:17.351Z,12244.00
2018-06-25T13:53:10.299Z,11460.00
2018-06-25T13:54:10.306Z,11848.00
2018-06-25T13:56:03.236Z,11064.00
2018-06-25T13:57:03.260Z,9852.00
2018-06-25T13:58:56.220Z,8924.00
2018-06-25T13:59:56.229Z,8296.00
2018-06-25T14:01:49.155Z,8200.00
2018-06-25T14:02:49.186Z,8872.00
2018-06-25T14:04:42.158Z,7636.00
2018-06-25T14:05:42.141Z,6740.00
2018-06-25T14:07:35.085Z,6480.00
2018-06-25T14:08:35.089Z,6544.00
2018-06-25T14:10:28.014Z,6956.00
2018-06-25T14:11:28.043Z,7260.00
2018-06-25T14:13:20.988Z,8300.00
2018-06-25T14:14:20.995Z,7852.00
2018-06-25T14:16:13.918Z,6080.00
2018-06-25T14:17:13.948Z,5420.00
2018-06-25T14:19:06.891Z,5668.00
2018-06-25T14:20:06.899Z,5944.00
2018-06-25T14:21:59.820Z,6644.00
2018-06-25T14:22:59.850Z,6376.00
2018-06-25T14:24:52.800Z,5680.00
2018-06-25T14:25:52.801Z,5352.00
2018-06-25T14:27:45.760Z,5360.00
2018-06-25T14:28:45.788Z,5332.00
2018-06-25T14:30:38.690Z,4796.00
2018-06-25T14:31:38.697Z,4624.00
2018-06-25T14:33:31.639Z,4604.00
2018-06-25T14:34:31.649Z,5000.00
2018-06-25T14:36:24.567Z,5176.00
2018-06-25T14:37:24.597Z,5340.00
2018-06-25T14:39:17.533Z,5792.00
2018-06-25T14:40:17.548Z,6004.00
2018-06-25T14:42:10.498Z,6504.00
2018-06-25T14:43:10.492Z,7088.00
2018-06-25T14:45:03.441Z,8144.00
2018-06-25T14:46:03.442Z,8548.00
2018-06-25T14:47:56.426Z,8744.00
2018-06-25T14:48:56.410Z,8608.00
2018-06-25T14:50:49.335Z,8020.00
2018-06-25T14:51:49.340Z,7408.00
2018-06-25T14:53:42.284Z,5632.00
2018-06-25T14:54:42.289Z,5356.00
2018-06-25T14:56:35.212Z,5552.00
2018-06-25T14:57:35.240Z,5544.00
2018-06-25T14:59:28.232Z,5820.00
2018-06-25T15:00:28.217Z,6388.00
2018-06-25T15:02:21.182Z,8176.00
2018-06-25T15:03:21.211Z,8324.00
2018-06-25T15:05:14.182Z,7536.00
2018-06-25T15:06:14.168Z,7028.00
2018-06-25T15:08:07.116Z,6604.00
2018-06-25T15:09:07.122Z,6628.00
2018-06-25T15:11:00.075Z,6900.00
2018-06-25T15:12:00.077Z,6912.00
2018-06-25T15:13:53.001Z,7364.00
2018-06-25T15:14:53.024Z,7532.00
2018-06-25T15:16:45.964Z,7804.00
2018-06-25T15:17:45.974Z,7960.00
2018-06-25T15:19:38.913Z,9608.00
2018-06-25T15:20:38.921Z,10376.00
2018-06-25T15:22:31.846Z,11184.00
2018-06-25T15:23:31.944Z,11292.00
2018-06-25T15:25:24.817Z,12436.00
2018-06-25T15:26:24.827Z,12600.00
2018-06-25T15:28:17.748Z,12384.00
2018-06-25T15:29:17.778Z,12244.00
2018-06-25T15:31:10.720Z,12120.00
2018-06-25T15:32:10.731Z,11932.00
2018-06-25T15:34:03.650Z,11772.00
2018-06-25T15:35:03.680Z,11580.00
2018-06-25T15:36:56.694Z,10868.00
2018-06-25T15:37:56.718Z,10348.00
2018-06-25T15:39:49.585Z,8992.00
2018-06-25T15:40:49.583Z,8392.00
2018-06-25T15:42:42.508Z,7664.00
2018-06-25T15:43:42.534Z,7228.00
2018-06-25T15:45:35.479Z,6280.00
2018-06-25T15:46:35.486Z,5680.00
2018-06-25T15:48:28.411Z,4756.00
2018-06-25T15:49:28.438Z,4620.00
2018-06-25T15:51:21.378Z,4980.00
2018-06-25T15:52:21.389Z,5324.00
2018-06-25T15:54:14.312Z,6028.00
2018-06-25T15:55:14.338Z,6308.00
2018-06-25T15:57:07.282Z,5980.00
2018-06-25T15:58:07.289Z,5788.00
2018-06-25T16:00:00.260Z,6560.00
2018-06-25T16:01:00.244Z,7136.00
2018-06-25T16:02:53.182Z,7968.00
2018-06-25T16:03:53.195Z,8560.00
2018-06-25T16:05:46.137Z,9328.00
2018-06-25T16:06:46.173Z,9492.00
2018-06-25T16:08:39.066Z,9972.00
2018-06-25T16:09:39.093Z,10340.00
2018-06-25T16:11:32.036Z,10400.00
2018-06-25T16:12:32.044Z,10664.00
2018-06-25T16:14:24.992Z,10608.00
2018-06-25T16:15:24.998Z,10544.00
2018-06-25T16:17:17.948Z,10544.00
2018-06-25T16:18:17.956Z,10600.00
2018-06-25T16:20:10.881Z,10460.00
2018-06-25T16:21:10.914Z,10492.00
2018-06-25T16:23:03.853Z,10432.00
2018-06-25T16:24:03.862Z,10388.00
2018-06-25T16:25:56.786Z,9888.00
2018-06-25T16:26:56.816Z,9516.00
2018-06-25T16:28:49.763Z,8564.00
2018-06-25T16:29:49.768Z,8212.00
2018-06-25T16:31:42.723Z,7640.00
2018-06-25T16:32:42.729Z,7636.00
2018-06-25T16:34:35.754Z,8416.00
2018-06-25T16:35:35.747Z,8964.00
2018-06-25T16:37:28.689Z,9224.00
2018-06-25T16:38:28.657Z,9088.00
2018-06-25T16:40:21.625Z,9116.00
2018-06-25T16:41:21.630Z,9104.00
2018-06-25T16:43:14.817Z,9128.00
2018-06-25T16:44:14.826Z,8968.00
2018-06-25T16:46:07.785Z,9372.00
2018-06-25T16:47:07.812Z,9744.00
2018-06-25T16:49:00.770Z,10320.00
2018-06-25T16:50:00.771Z,10316.00
2018-06-25T16:51:53.896Z,10160.00
2018-06-25T16:52:53.930Z,9596.00
2018-06-25T16:54:46.757Z,8772.00
2018-06-25T16:55:46.849Z,8608.00
2018-06-25T16:57:39.746Z,8648.00
2018-06-25T16:58:39.749Z,8712.00
2018-06-25T17:00:32.665Z,8704.00
2018-06-25T17:01:32.698Z,8732.00
2018-06-25T17:03:25.641Z,7928.00
2018-06-25T17:04:25.648Z,7684.00
2018-06-25T17:06:18.572Z,7208.00
2018-06-25T17:07:18.602Z,7032.00
2018-06-25T17:09:11.544Z,7028.00
2018-06-25T17:10:11.555Z,7080.00
2018-06-25T17:12:04.478Z,7124.00
2018-06-25T17:13:04.506Z,7064.00
2018-06-25T17:14:57.469Z,7060.00
2018-06-25T17:15:57.484Z,7352.00
2018-06-25T17:17:50.557Z,7784.00
2018-06-25T17:18:50.457Z,7660.00
2018-06-25T17:20:43.385Z,7636.00
2018-06-25T17:21:43.413Z,7656.00
2018-06-25T17:23:36.435Z,7672.00
2018-06-25T17:24:36.412Z,7876.00
2018-06-25T17:26:29.314Z,8272.00
2018-06-25T17:27:29.348Z,8348.00
2018-06-25T17:29:22.313Z,8232.00
2018-06-25T17:30:22.298Z,8484.00
2018-06-25T17:32:15.230Z,9272.00